sensor_id;sensor_type;location;lat;lon;timestamp;P1;durP1;ratioP1;P2;durP2;ratioP2
46983;SDS011;34732;52.112;9.366;2023-07-13T08:29:48;11.35;;;2.33;;
46983;SDS011;34732;52.112;9.366;2023-07-13T08:33:10;6.57;;;1.58;;
46983;SDS011;34732;52.112;9.366;2023-07-13T08:39:54;9.48;;;2.15;;
46983;SDS011;34732;52.112;9.366;2023-07-13T08:43:34;4.88;;;1.80;;
46983;SDS011;34732;52.112;9.366;2023-07-13T08:46:56;6.03;;;1.45;;
46983;SDS011;34732;52.112;9.366;2023-07-13T08:50:20;9.10;;;2.17;;
46983;SDS011;34732;52.112;9.366;2023-07-13T08:53:46;7.30;;;2.05;;
46983;SDS011;34732;52.112;9.366;2023-07-13T08:57:12;9.95;;;2.35;;
46983;SDS011;34732;52.112;9.366;2023-07-13T09:00:47;18.42;;;3.05;;
46983;SDS011;34732;52.112;9.366;2023-07-13T09:04:21;23.77;;;3.30;;
46983;SDS011;34732;52.112;9.366;2023-07-13T09:11:45;35.15;;;3.95;;
46983;SDS011;34732;52.112;9.366;2023-07-13T09:18:53;19.02;;;3.67;;
46983;SDS011;34732;52.112;9.366;2023-07-13T09:22:25;14.65;;;2.90;;
46983;SDS011;34732;52.112;9.366;2023-07-13T09:25:54;13.80;;;2.92;;
46983;SDS011;34732;52.112;9.366;2023-07-13T09:29:28;19.17;;;2.90;;
46983;SDS011;34732;52.112;9.366;2023-07-13T09:32:54;10.70;;;2.60;;
46983;SDS011;34732;52.112;9.366;2023-07-13T09:36:31;9.68;;;2.10;;
46983;SDS011;34732;52.112;9.366;2023-07-13T09:39:57;8.80;;;1.88;;
46983;SDS011;34732;52.112;9.366;2023-07-13T09:43:22;6.65;;;1.52;;
46983;SDS011;34732;52.112;9.366;2023-07-13T09:46:47;8.50;;;1.90;;
46983;SDS011;34732;52.112;9.366;2023-07-13T09:50:17;3.70;;;1.70;;
46983;SDS011;34732;52.112;9.366;2023-07-13T09:53:45;4.22;;;1.58;;
46983;SDS011;34732;52.112;9.366;2023-07-13T09:57:13;5.35;;;1.52;;
46983;SDS011;34732;52.112;9.366;2023-07-13T10:00:39;5.32;;;1.40;;
46983;SDS011;34732;52.112;9.366;2023-07-13T10:04:10;6.05;;;1.90;;
46983;SDS011;34732;52.112;9.366;2023-07-13T10:07:37;4.47;;;1.38;;
46983;SDS011;34732;52.112;9.366;2023-07-13T10:11:00;6.97;;;1.70;;
46983;SDS011;34732;52.112;9.366;2023-07-13T10:14:26;6.97;;;1.85;;
46983;SDS011;34732;52.112;9.366;2023-07-13T10:17:50;4.13;;;1.67;;
46983;SDS011;34732;52.112;9.366;2023-07-13T10:21:18;3.80;;;1.40;;
46983;SDS011;34732;52.112;9.366;2023-07-13T10:24:45;4.50;;;1.70;;
46983;SDS011;34732;52.112;9.366;2023-07-13T10:31:34;5.22;;;1.40;;
46983;SDS011;34732;52.112;9.366;2023-07-13T10:35:02;3.92;;;1.27;;
46983;SDS011;34732;52.112;9.366;2023-07-13T10:38:24;7.45;;;1.60;;
46983;SDS011;34732;52.112;9.366;2023-07-13T10:41:49;18.75;;;2.95;;
46983;SDS011;34732;52.112;9.366;2023-07-13T10:45:17;13.95;;;2.88;;
46983;SDS011;34732;52.112;9.366;2023-07-13T10:48:44;18.08;;;2.28;;
46983;SDS011;34732;52.112;9.366;2023-07-13T10:56:29;10.23;;;2.20;;
46983;SDS011;34732;52.112;9.366;2023-07-13T11:03:54;9.00;;;1.98;;
46983;SDS011;34732;52.112;9.366;2023-07-13T11:10:48;6.35;;;1.88;;
46983;SDS011;34732;52.112;9.366;2023-07-13T11:17:48;5.20;;;1.60;;
46983;SDS011;34732;52.112;9.366;2023-07-13T11:21:13;9.00;;;1.92;;
46983;SDS011;34732;52.112;9.366;2023-07-13T11:24:59;5.70;;;1.50;;
46983;SDS011;34732;52.112;9.366;2023-07-13T11:28:25;5.15;;;1.58;;
46983;SDS011;34732;52.112;9.366;2023-07-13T11:31:52;5.47;;;1.88;;
46983;SDS011;34732;52.112;9.366;2023-07-13T11:35:15;4.68;;;1.55;;
46983;SDS011;34732;52.112;9.366;2023-07-13T11:42:02;8.25;;;1.70;;
46983;SDS011;34732;52.112;9.366;2023-07-13T11:45:25;4.13;;;1.42;;
46983;SDS011;34732;52.112;9.366;2023-07-13T11:48:54;4.82;;;1.67;;
46983;SDS011;34732;52.112;9.366;2023-07-13T11:52:19;7.57;;;1.80;;
46983;SDS011;34732;52.112;9.366;2023-07-13T11:55:42;3.25;;;1.27;;
46983;SDS011;34732;52.112;9.366;2023-07-13T11:59:07;5.70;;;1.60;;
46983;SDS011;34732;52.112;9.366;2023-07-13T12:02:36;4.25;;;1.33;;
46983;SDS011;34732;52.112;9.366;2023-07-13T12:06:05;6.97;;;1.40;;
46983;SDS011;34732;52.112;9.366;2023-07-13T12:09:32;4.65;;;1.17;;
46983;SDS011;34732;52.112;9.366;2023-07-13T12:13:00;4.85;;;1.52;;
46983;SDS011;34732;52.112;9.366;2023-07-13T12:16:31;5.60;;;1.73;;
46983;SDS011;34732;52.112;9.366;2023-07-13T12:19:57;4.05;;;1.23;;
46983;SDS011;34732;52.112;9.366;2023-07-13T12:26:53;4.40;;;1.30;;
46983;SDS011;34732;52.112;9.366;2023-07-13T12:30:30;3.45;;;1.52;;
46983;SDS011;34732;52.112;9.366;2023-07-13T12:33:59;3.85;;;1.60;;
46983;SDS011;34732;52.112;9.366;2023-07-13T12:37:33;7.88;;;1.60;;
46983;SDS011;34732;52.112;9.366;2023-07-13T12:40:58;5.18;;;1.48;;
46983;SDS011;34732;52.112;9.366;2023-07-13T12:44:26;3.65;;;1.58;;
46983;SDS011;34732;52.112;9.366;2023-07-13T12:47:56;3.95;;;1.05;;
46983;SDS011;34732;52.112;9.366;2023-07-13T12:51:22;5.05;;;1.33;;
46983;SDS011;34732;52.112;9.366;2023-07-13T12:54:58;7.07;;;1.70;;
46983;SDS011;34732;52.112;9.366;2023-07-13T12:58:39;4.63;;;1.52;;
46983;SDS011;34732;52.112;9.366;2023-07-13T13:02:16;8.03;;;1.37;;
46983;SDS011;34732;52.112;9.366;2023-07-13T13:05:58;5.78;;;1.50;;
46983;SDS011;34732;52.112;9.366;2023-07-13T13:09:26;6.72;;;1.92;;
46983;SDS011;34732;52.112;9.366;2023-07-13T13:12:49;3.47;;;1.63;;
46983;SDS011;34732;52.112;9.366;2023-07-13T13:16:12;5.63;;;1.85;;
46983;SDS011;34732;52.112;9.366;2023-07-13T13:19:42;5.57;;;1.63;;
46983;SDS011;34732;52.112;9.366;2023-07-13T13:23:07;5.55;;;1.50;;
46983;SDS011;34732;52.112;9.366;2023-07-13T13:26:32;6.30;;;1.70;;
46983;SDS011;34732;52.112;9.366;2023-07-13T13:29:53;4.28;;;1.60;;
46983;SDS011;34732;52.112;9.366;2023-07-13T13:33:20;8.55;;;1.70;;
46983;SDS011;34732;52.112;9.366;2023-07-13T13:36:44;5.57;;;1.63;;
46983;SDS011;34732;52.112;9.366;2023-07-13T13:40:15;10.35;;;2.35;;
46983;SDS011;34732;52.112;9.366;2023-07-13T13:43:38;11.73;;;1.38;;
46983;SDS011;34732;52.112;9.366;2023-07-13T13:47:00;5.63;;;1.60;;
46983;SDS011;34732;52.112;9.366;2023-07-13T13:50:27;6.15;;;1.58;;
46983;SDS011;34732;52.112;9.366;2023-07-13T13:53:51;4.03;;;1.67;;
46983;SDS011;34732;52.112;9.366;2023-07-13T13:57:14;6.18;;;1.67;;
46983;SDS011;34732;52.112;9.366;2023-07-13T14:00:41;5.82;;;1.55;;
46983;SDS011;34732;52.112;9.366;2023-07-13T14:04:11;5.38;;;1.70;;
46983;SDS011;34732;52.112;9.366;2023-07-13T14:07:38;6.00;;;1.67;;
46983;SDS011;34732;52.112;9.366;2023-07-13T14:11:04;4.78;;;1.60;;
46983;SDS011;34732;52.112;9.366;2023-07-13T14:14:28;5.57;;;1.52;;
46983;SDS011;34732;52.112;9.366;2023-07-13T14:17:54;4.75;;;1.55;;
46983;SDS011;34732;52.112;9.366;2023-07-13T14:21:17;2.63;;;1.33;;
46983;SDS011;34732;52.112;9.366;2023-07-13T14:24:43;9.13;;;1.70;;
46983;SDS011;34732;52.112;9.366;2023-07-13T14:28:27;8.35;;;1.55;;
46983;SDS011;34732;52.112;9.366;2023-07-13T14:31:49;5.63;;;1.35;;
46983;SDS011;34732;52.112;9.366;2023-07-13T14:35:15;4.60;;;1.60;;
46983;SDS011;34732;52.112;9.366;2023-07-13T14:38:40;3.22;;;1.60;;
46983;SDS011;34732;52.112;9.366;2023-07-13T14:42:08;4.50;;;2.13;;
46983;SDS011;34732;52.112;9.366;2023-07-13T14:45:34;4.80;;;1.50;;
46983;SDS011;34732;52.112;9.366;2023-07-13T14:49:04;4.53;;;1.63;;
46983;SDS011;34732;52.112;9.366;2023-07-13T14:52:50;5.72;;;1.73;;
46983;SDS011;34732;52.112;9.366;2023-07-13T14:56:13;4.22;;;1.60;;
46983;SDS011;34732;52.112;9.366;2023-07-13T14:59:38;8.98;;;1.80;;
46983;SDS011;34732;52.112;9.366;2023-07-13T15:03:11;5.28;;;1.70;;
46983;SDS011;34732;52.112;9.366;2023-07-13T15:06:58;3.92;;;1.73;;
46983;SDS011;34732;52.112;9.366;2023-07-13T15:10:26;6.00;;;2.35;;
46983;SDS011;34732;52.112;9.366;2023-07-13T15:13:52;4.13;;;1.67;;
46983;SDS011;34732;52.112;9.366;2023-07-13T15:17:20;4.18;;;1.60;;
46983;SDS011;34732;52.112;9.366;2023-07-13T15:20:48;6.03;;;1.65;;
46983;SDS011;34732;52.112;9.366;2023-07-13T15:24:10;4.72;;;1.55;;
46983;SDS011;34732;52.112;9.366;2023-07-13T15:27:34;4.57;;;1.48;;
46983;SDS011;34732;52.112;9.366;2023-07-13T15:30:58;6.30;;;1.73;;
46983;SDS011;34732;52.112;9.366;2023-07-13T15:34:23;2.63;;;1.38;;
46983;SDS011;34732;52.112;9.366;2023-07-13T15:37:48;5.45;;;1.30;;
46983;SDS011;34732;52.112;9.366;2023-07-13T15:41:20;4.75;;;1.60;;
46983;SDS011;34732;52.112;9.366;2023-07-13T15:44:43;2.97;;;1.13;;
46983;SDS011;34732;52.112;9.366;2023-07-13T15:51:45;5.40;;;1.50;;
46983;SDS011;34732;52.112;9.366;2023-07-13T15:55:09;2.88;;;1.67;;
46983;SDS011;34732;52.112;9.366;2023-07-13T15:58:31;3.30;;;1.63;;
46983;SDS011;34732;52.112;9.366;2023-07-13T16:01:55;2.30;;;1.20;;
46983;SDS011;34732;52.112;9.366;2023-07-13T16:05:21;6.20;;;1.83;;
46983;SDS011;34732;52.112;9.366;2023-07-13T16:08:50;4.55;;;1.23;;
46983;SDS011;34732;52.112;9.366;2023-07-13T16:12:19;4.03;;;1.27;;
46983;SDS011;34732;52.112;9.366;2023-07-13T16:15:44;5.10;;;1.42;;
46983;SDS011;34732;52.112;9.366;2023-07-13T16:19:05;4.40;;;1.50;;
46983;SDS011;34732;52.112;9.366;2023-07-13T16:22:32;3.47;;;1.45;;
46983;SDS011;34732;52.112;9.366;2023-07-13T16:25:56;4.00;;;1.40;;
46983;SDS011;34732;52.112;9.366;2023-07-13T16:29:20;4.97;;;1.63;;
46983;SDS011;34732;52.112;9.366;2023-07-13T16:32:46;5.72;;;1.50;;
46983;SDS011;34732;52.112;9.366;2023-07-13T16:36:18;4.45;;;1.25;;
46983;SDS011;34732;52.112;9.366;2023-07-13T16:39:48;3.75;;;1.33;;
46983;SDS011;34732;52.112;9.366;2023-07-13T16:43:17;5.00;;;1.33;;
46983;SDS011;34732;52.112;9.366;2023-07-13T16:46:41;5.28;;;1.50;;
46983;SDS011;34732;52.112;9.366;2023-07-13T16:50:08;6.28;;;1.67;;
46983;SDS011;34732;52.112;9.366;2023-07-13T16:53:37;2.88;;;1.30;;
46983;SDS011;34732;52.112;9.366;2023-07-13T16:57:02;3.80;;;1.60;;
46983;SDS011;34732;52.112;9.366;2023-07-13T17:00:27;3.90;;;1.63;;
46983;SDS011;34732;52.112;9.366;2023-07-13T17:03:49;4.60;;;1.50;;
46983;SDS011;34732;52.112;9.366;2023-07-13T17:07:21;3.60;;;1.20;;
46983;SDS011;34732;52.112;9.366;2023-07-13T17:10:46;2.40;;;1.42;;
46983;SDS011;34732;52.112;9.366;2023-07-13T17:14:12;3.08;;;1.38;;
46983;SDS011;34732;52.112;9.366;2023-07-13T17:17:36;3.72;;;1.55;;
46983;SDS011;34732;52.112;9.366;2023-07-13T17:21:06;6.97;;;1.60;;
46983;SDS011;34732;52.112;9.366;2023-07-13T17:24:32;3.65;;;1.30;;
46983;SDS011;34732;52.112;9.366;2023-07-13T17:27:57;4.95;;;1.48;;
46983;SDS011;34732;52.112;9.366;2023-07-13T17:31:19;4.43;;;1.38;;
46983;SDS011;34732;52.112;9.366;2023-07-13T17:34:42;3.60;;;1.58;;
46983;SDS011;34732;52.112;9.366;2023-07-13T17:38:06;11.10;;;1.45;;
46983;SDS011;34732;52.112;9.366;2023-07-13T17:41:27;3.28;;;1.25;;
46983;SDS011;34732;52.112;9.366;2023-07-13T17:44:48;3.90;;;1.40;;
46983;SDS011;34732;52.112;9.366;2023-07-13T17:48:12;3.05;;;1.30;;
46983;SDS011;34732;52.112;9.366;2023-07-13T17:51:33;5.82;;;1.50;;
46983;SDS011;34732;52.112;9.366;2023-07-13T17:54:58;5.75;;;1.55;;
46983;SDS011;34732;52.112;9.366;2023-07-13T17:58:23;3.00;;;0.90;;
46983;SDS011;34732;52.112;9.366;2023-07-13T18:01:45;2.30;;;1.08;;
46983;SDS011;34732;52.112;9.366;2023-07-13T18:05:08;2.42;;;1.27;;
46983;SDS011;34732;52.112;9.366;2023-07-13T18:08:34;2.10;;;1.27;;
46983;SDS011;34732;52.112;9.366;2023-07-13T18:11:56;3.22;;;1.10;;
46983;SDS011;34732;52.112;9.366;2023-07-13T18:15:19;2.70;;;1.05;;
46983;SDS011;34732;52.112;9.366;2023-07-13T18:18:42;4.20;;;1.05;;
46983;SDS011;34732;52.112;9.366;2023-07-13T18:22:16;3.10;;;1.20;;
46983;SDS011;34732;52.112;9.366;2023-07-13T18:25:38;2.72;;;1.15;;
46983;SDS011;34732;52.112;9.366;2023-07-13T18:29:01;2.70;;;1.13;;
46983;SDS011;34732;52.112;9.366;2023-07-13T18:32:25;4.28;;;1.05;;
46983;SDS011;34732;52.112;9.366;2023-07-13T18:35:48;2.63;;;1.00;;
46983;SDS011;34732;52.112;9.366;2023-07-13T18:39:14;1.70;;;1.05;;
46983;SDS011;34732;52.112;9.366;2023-07-13T18:42:38;3.75;;;1.00;;
46983;SDS011;34732;52.112;9.366;2023-07-13T18:46:03;3.00;;;1.17;;
46983;SDS011;34732;52.112;9.366;2023-07-13T18:49:32;2.53;;;1.00;;
46983;SDS011;34732;52.112;9.366;2023-07-13T18:52:54;3.85;;;1.23;;
46983;SDS011;34732;52.112;9.366;2023-07-13T18:56:15;6.70;;;1.10;;
46983;SDS011;34732;52.112;9.366;2023-07-13T18:59:37;6.78;;;1.70;;
46983;SDS011;34732;52.112;9.366;2023-07-13T19:03:01;7.03;;;1.95;;
46983;SDS011;34732;52.112;9.366;2023-07-13T19:06:26;4.70;;;1.80;;
46983;SDS011;34732;52.112;9.366;2023-07-13T19:09:52;3.55;;;1.70;;
46983;SDS011;34732;52.112;9.366;2023-07-13T19:13:22;12.48;;;2.30;;
46983;SDS011;34732;52.112;9.366;2023-07-13T19:16:48;16.40;;;2.20;;
46983;SDS011;34732;52.112;9.366;2023-07-13T19:20:13;9.48;;;2.25;;
46983;SDS011;34732;52.112;9.366;2023-07-13T19:27:44;4.90;;;1.85;;
46983;SDS011;34732;52.112;9.366;2023-07-13T19:34:53;3.90;;;2.00;;
46983;SDS011;34732;52.112;9.366;2023-07-13T19:38:24;4.20;;;2.40;;
46983;SDS011;34732;52.112;9.366;2023-07-13T19:41:48;4.43;;;2.00;;
